Time;durP1;ratioP1;P1;durP2;ratioP2;P2;SDS_P1;SDS_P2;PMS_P1;PMS_P2;Temp;Humidity;BMP_temperature;BMP_pressure;BME280_temperature;BME280_humidity;BME280_pressure;Samples;Min_cycle;Max_cycle;Signal;HPM_P1;HPM_P2
2023/10/27 00:00:10;;;;;;;20.97;14.60;;;11.50;99.90;;;;;;5115301;28;20533;-62
2023/10/27 00:02:38;;;;;;;18.00;12.60;;;11.60;99.90;;;;;;5115373;28;20448;-61
2023/10/27 00:05:05;;;;;;;20.80;14.83;;;11.70;99.90;;;;;;5115380;28;20452;-61
2023/10/27 00:07:33;;;;;;;23.30;14.57;;;11.60;99.90;;;;;;5115547;28;20448;-61
2023/10/27 00:09:59;;;;;;;19.50;14.73;;;11.60;99.90;;;;;;5114969;28;20481;-61
2023/10/27 00:12:26;;;;;;;21.43;14.17;;;11.70;99.90;;;;;;5114994;28;20442;-61
2023/10/27 00:14:52;;;;;;;20.30;15.13;;;11.60;99.90;;;;;;5114905;28;20525;-62
2023/10/27 00:17:19;;;;;;;19.93;13.97;;;11.50;99.90;;;;;;5115186;28;20534;-62
2023/10/27 00:19:45;;;;;;;22.83;13.97;;;11.50;99.90;;;;;;5115088;28;20529;-62
2023/10/27 00:22:12;;;;;;;20.30;15.17;;;11.60;99.90;;;;;;5114762;28;20965;-62
2023/10/27 00:24:40;;;;;;;21.17;14.40;;;11.60;99.90;;;;;;5114881;28;20824;-62
2023/10/27 00:27:06;;;;;;;24.43;16.27;;;11.50;99.90;;;;;;5114722;28;20446;-61
2023/10/27 00:29:33;;;;;;;19.77;14.73;;;11.50;99.90;;;;;;5114619;28;20549;-62
2023/10/27 00:32:00;;;;;;;25.43;16.93;;;11.50;99.90;;;;;;5114811;28;20553;-62
2023/10/27 00:34:26;;;;;;;25.97;15.57;;;11.50;99.90;;;;;;5114775;28;20529;-62
2023/10/27 00:36:52;;;;;;;21.97;16.80;;;11.50;99.90;;;;;;5114625;28;20448;-61
2023/10/27 00:39:19;;;;;;;23.33;16.53;;;11.50;99.90;;;;;;5114573;28;20449;-61
2023/10/27 00:41:47;;;;;;;27.13;16.10;;;11.60;99.90;;;;;;5114473;28;20441;-61
2023/10/27 00:44:14;;;;;;;29.47;17.47;;;11.50;99.90;;;;;;5114186;28;20478;-61
2023/10/27 00:46:40;;;;;;;30.67;18.00;;;11.50;99.90;;;;;;5114842;28;20532;-61
2023/10/27 00:49:07;;;;;;;28.60;17.90;;;11.50;99.90;;;;;;5114544;28;20560;-62
2023/10/27 00:51:35;;;;;;;28.17;16.60;;;11.50;99.90;;;;;;5114372;28;20430;-61
2023/10/27 00:54:02;;;;;;;32.40;18.87;;;11.40;99.90;;;;;;5114295;28;20528;-61
2023/10/27 00:56:29;;;;;;;33.13;18.80;;;11.30;99.90;;;;;;5114224;28;20442;-62
2023/10/27 00:58:58;;;;;;;34.17;19.07;;;11.30;99.90;;;;;;5113987;28;20525;-62
2023/10/27 01:01:24;;;;;;;43.57;19.87;;;11.20;99.90;;;;;;5114251;28;20932;-61
2023/10/27 01:03:51;;;;;;;39.07;22.00;;;11.10;99.90;;;;;;5114174;28;20533;-61
2023/10/27 01:06:18;;;;;;;34.87;19.67;;;11.00;99.90;;;;;;5113649;28;20495;-62
2023/10/27 01:08:44;;;;;;;39.83;21.43;;;10.90;99.90;;;;;;5113968;28;20442;-61
2023/10/27 01:11:11;;;;;;;35.60;18.63;;;10.90;99.90;;;;;;5113740;28;20481;-62
2023/10/27 01:13:37;;;;;;;35.60;18.90;;;10.90;99.90;;;;;;5113838;28;21012;-61
2023/10/27 01:16:06;;;;;;;38.00;19.27;;;10.80;99.90;;;;;;5113721;28;20955;-62
2023/10/27 01:18:32;;;;;;;37.20;20.40;;;10.80;99.90;;;;;;5113875;28;20448;-61
2023/10/27 01:20:59;;;;;;;39.50;19.70;;;10.70;99.90;;;;;;5113882;28;20449;-61
2023/10/27 01:23:27;;;;;;;38.23;20.50;;;10.70;99.90;;;;;;5113715;28;20534;-62
2023/10/27 01:25:53;;;;;;;40.20;21.10;;;10.70;99.90;;;;;;5113630;28;20446;-62
2023/10/27 01:28:20;;;;;;;33.63;19.77;;;10.80;99.90;;;;;;5113836;28;20532;-62
2023/10/27 01:30:46;;;;;;;30.20;17.80;;;10.90;99.90;;;;;;5113752;28;20836;-62
2023/10/27 01:33:13;;;;;;;33.83;18.63;;;10.90;99.90;;;;;;5113697;28;20448;-61
2023/10/27 01:35:39;;;;;;;32.63;19.00;;;10.90;99.90;;;;;;5113587;28;20473;-61
2023/10/27 01:38:06;;;;;;;33.80;19.70;;;10.90;99.90;;;;;;5113497;28;20545;-61
2023/10/27 01:40:33;;;;;;;35.67;17.77;;;10.90;99.90;;;;;;5113719;28;20962;-61
2023/10/27 01:43:00;;;;;;;32.30;18.70;;;11.00;99.90;;;;;;5113707;28;20533;-61
2023/10/27 01:45:26;;;;;;;28.00;16.27;;;11.00;99.90;;;;;;5113361;28;20501;-62
2023/10/27 01:47:53;;;;;;;31.17;18.63;;;11.10;99.90;;;;;;5113467;28;21016;-61
2023/10/27 01:50:19;;;;;;;28.40;17.03;;;11.10;99.90;;;;;;5113365;28;20500;-62
2023/10/27 01:52:46;;;;;;;27.10;17.13;;;11.20;99.90;;;;;;5113330;28;20442;-61
2023/10/27 01:55:12;;;;;;;30.17;17.77;;;11.30;99.90;;;;;;5113565;28;20476;-61
2023/10/27 01:57:40;;;;;;;28.07;17.77;;;11.30;99.90;;;;;;5113209;28;20452;-61
2023/10/27 02:00:09;;;;;;;31.20;18.90;;;11.30;99.90;;;;;;5113435;28;20536;-62
2023/10/27 02:02:35;;;;;;;30.27;16.27;;;11.40;99.90;;;;;;5113379;28;20491;-61
2023/10/27 02:05:03;;;;;;;27.20;17.13;;;11.30;99.90;;;;;;5113300;28;20533;-61
2023/10/27 02:07:29;;;;;;;29.20;16.83;;;11.30;99.90;;;;;;5113194;28;20445;-62
2023/10/27 02:09:59;;;;;;;24.40;16.50;;;11.40;99.90;;;;;;5113374;28;20495;-61
2023/10/27 02:12:25;;;;;;;26.40;17.37;;;11.50;99.90;;;;;;5113277;28;20449;-61
2023/10/27 02:14:53;;;;;;;28.90;18.30;;;11.50;99.90;;;;;;5113326;28;20536;-62
2023/10/27 02:17:20;;;;;;;37.50;20.10;;;11.40;99.90;;;;;;5113288;28;20442;-61
2023/10/27 02:19:47;;;;;;;28.80;16.83;;;11.30;99.90;;;;;;5117217;28;20536;-62
2023/10/27 02:22:14;;;;;;;27.33;17.13;;;11.40;99.90;;;;;;5117063;28;20457;-61
2023/10/27 02:24:41;;;;;;;26.67;16.83;;;11.40;99.90;;;;;;5117316;28;20447;-62
2023/10/27 02:27:07;;;;;;;27.37;16.20;;;11.40;99.90;;;;;;5117167;28;20441;-61
2023/10/27 02:29:34;;;;;;;28.90;17.20;;;11.50;99.90;;;;;;5116921;28;20452;-62
2023/10/27 02:32:02;;;;;;;30.40;18.13;;;11.50;99.90;;;;;;5116988;28;20862;-62
2023/10/27 02:34:28;;;;;;;27.97;17.43;;;11.50;99.90;;;;;;5116884;28;20532;-61
2023/10/27 02:36:55;;;;;;;27.93;18.17;;;11.40;99.90;;;;;;5116829;28;20474;-61
2023/10/27 02:39:21;;;;;;;25.73;16.97;;;11.40;99.90;;;;;;5116958;28;20804;-62
2023/10/27 02:41:48;;;;;;;27.80;16.00;;;11.50;99.90;;;;;;5116905;28;20536;-62
2023/10/27 02:44:14;;;;;;;29.17;16.97;;;11.50;99.90;;;;;;5116719;28;20465;-62
2023/10/27 02:46:41;;;;;;;24.80;16.73;;;11.60;99.90;;;;;;5116985;28;20536;-61
2023/10/27 02:49:09;;;;;;;25.00;17.70;;;11.50;99.90;;;;;;5116600;28;20505;-61
2023/10/27 02:51:35;;;;;;;27.27;16.50;;;11.50;99.90;;;;;;5116628;28;20477;-62
2023/10/27 02:54:03;;;;;;;27.47;15.73;;;11.50;99.90;;;;;;5116744;28;20532;-62
2023/10/27 02:56:30;;;;;;;26.50;15.53;;;11.50;99.90;;;;;;5116689;28;20481;-62
2023/10/27 02:58:56;;;;;;;28.37;17.07;;;11.40;99.90;;;;;;5116581;28;20871;-61
2023/10/27 03:01:23;;;;;;;26.83;16.30;;;11.30;99.90;;;;;;5116480;28;20473;-61
2023/10/27 03:03:49;;;;;;;24.53;17.00;;;11.30;99.90;;;;;;5116346;28;20528;-62
2023/10/27 03:06:17;;;;;;;26.63;15.73;;;11.20;99.90;;;;;;5116542;28;20464;-62
2023/10/27 03:08:43;;;;;;;27.37;16.33;;;11.30;99.90;;;;;;5116430;28;20445;-61
2023/10/27 03:11:10;;;;;;;29.07;16.63;;;11.30;99.90;;;;;;5116260;28;20560;-61
2023/10/27 03:13:37;;;;;;;26.07;16.40;;;11.30;99.90;;;;;;5116355;28;20448;-62
2023/10/27 03:16:04;;;;;;;27.37;15.63;;;11.20;99.90;;;;;;5116122;28;20446;-61
2023/10/27 03:18:32;;;;;;;24.83;15.60;;;11.20;99.90;;;;;;5116020;28;20924;-62
2023/10/27 03:21:00;;;;;;;26.67;15.60;;;11.30;99.90;;;;;;5116264;28;20861;-62
2023/10/27 03:23:29;;;;;;;27.27;16.90;;;11.30;99.90;;;;;;5116161;28;20446;-62
2023/10/27 03:25:55;;;;;;;26.97;17.17;;;11.30;99.90;;;;;;5116101;28;20545;-61
2023/10/27 03:28:22;;;;;;;32.03;16.67;;;11.30;99.90;;;;;;5115476;28;20448;-62
2023/10/27 03:30:49;;;;;;;29.57;16.37;;;11.20;99.90;;;;;;5115713;28;20477;-62
2023/10/27 03:33:16;;;;;;;28.37;15.00;;;11.20;99.90;;;;;;5115891;28;20528;-61
2023/10/27 03:35:43;;;;;;;30.07;17.47;;;11.20;99.90;;;;;;5115850;28;20453;-62
2023/10/27 03:38:10;;;;;;;28.70;18.80;;;11.10;99.90;;;;;;5115815;28;20812;-61
2023/10/27 03:40:38;;;;;;;29.57;16.40;;;11.10;99.90;;;;;;5115706;28;20438;-62
2023/10/27 03:43:04;;;;;;;31.10;17.97;;;11.10;99.90;;;;;;5115689;28;20477;-62
2023/10/27 03:45:31;;;;;;;32.13;18.07;;;11.20;99.90;;;;;;5115261;28;20501;-61
2023/10/27 03:47:57;;;;;;;28.70;17.73;;;11.10;99.90;;;;;;5115683;28;20529;-62
2023/10/27 03:50:24;;;;;;;31.60;18.20;;;11.10;99.90;;;;;;5115557;28;20469;-61
2023/10/27 03:52:50;;;;;;;33.00;18.40;;;11.00;99.90;;;;;;5115521;28;20448;-61
2023/10/27 03:55:16;;;;;;;28.77;18.80;;;11.00;99.90;;;;;;5115448;28;20448;-61
2023/10/27 03:57:44;;;;;;;30.10;18.27;;;11.00;99.90;;;;;;5115275;28;20448;-62
2023/10/27 04:00:13;;;;;;;30.03;17.50;;;11.00;99.90;;;;;;5115242;28;20499;-61
2023/10/27 04:02:41;;;;;;;27.13;17.33;;;11.10;99.90;;;;;;5115414;28;20597;-62
2023/10/27 04:05:08;;;;;;;32.40;17.70;;;11.10;99.90;;;;;;5115330;28;20444;-62
2023/10/27 04:07:34;;;;;;;27.67;17.10;;;11.10;99.90;;;;;;5115454;28;20855;-62
2023/10/27 04:10:01;;;;;;;28.67;17.10;;;11.20;99.90;;;;;;5115053;28;20442;-62
2023/10/27 04:12:27;;;;;;;28.63;16.70;;;11.20;99.90;;;;;;5114917;28;20445;-62
2023/10/27 04:14:55;;;;;;;28.50;17.03;;;11.20;99.90;;;;;;5114966;28;20528;-62
2023/10/27 04:17:22;;;;;;;32.20;18.13;;;11.10;99.90;;;;;;5115091;28;20556;-64
2023/10/27 04:19:50;;;;;;;31.07;18.13;;;11.10;99.90;;;;;;5114901;28;20442;-62
2023/10/27 04:22:16;;;;;;;31.53;17.33;;;11.10;99.90;;;;;;5114896;28;20502;-62
2023/10/27 04:24:43;;;;;;;29.63;16.90;;;11.10;99.90;;;;;;5114825;28;20540;-62
2023/10/27 04:27:09;;;;;;;32.70;18.03;;;11.20;99.90;;;;;;5114620;28;20979;-62
2023/10/27 04:29:36;;;;;;;29.87;17.23;;;11.10;99.90;;;;;;5114920;28;20537;-62
2023/10/27 04:32:04;;;;;;;27.90;15.10;;;11.10;99.90;;;;;;5114679;28;20527;-62
2023/10/27 04:34:31;;;;;;;28.30;16.90;;;11.00;99.90;;;;;;5114720;28;20805;-62
2023/10/27 04:36:57;;;;;;;32.40;15.00;;;11.00;99.90;;;;;;5114635;28;20441;-62
2023/10/27 04:39:24;;;;;;;32.93;16.43;;;10.90;99.90;;;;;;5114400;28;20983;-62
2023/10/27 04:41:50;;;;;;;30.70;17.13;;;10.80;99.90;;;;;;5113596;28;21004;-62
2023/10/27 04:44:22;;;;;;;29.30;17.80;;;10.90;99.90;;;;;;5114283;28;20560;-62
2023/10/27 04:46:48;;;;;;;29.40;16.50;;;10.90;99.90;;;;;;5114391;28;20858;-62
2023/10/27 04:49:16;;;;;;;29.00;15.77;;;10.90;99.90;;;;;;5114326;28;20568;-62
2023/10/27 04:51:43;;;;;;;29.37;15.27;;;10.90;99.90;;;;;;5114191;28;20894;-62
2023/10/27 04:54:20;;;;;;;29.20;15.77;;;10.90;99.90;;;;;;5114317;28;20537;-64
2023/10/27 04:56:46;;;;;;;33.17;16.70;;;10.90;99.90;;;;;;5114360;28;20840;-61
2023/10/27 04:59:12;;;;;;;31.10;16.40;;;11.00;99.90;;;;;;5114281;28;20528;-61
2023/10/27 05:01:39;;;;;;;28.70;15.70;;;11.00;99.90;;;;;;5114206;28;20532;-61
2023/10/27 05:04:06;;;;;;;33.60;17.17;;;11.10;99.90;;;;;;5114075;28;20847;-61
2023/10/27 05:06:33;;;;;;;30.57;16.37;;;11.00;99.90;;;;;;5113891;28;20444;-61
2023/10/27 05:09:00;;;;;;;35.43;17.13;;;10.90;99.90;;;;;;5114196;28;20467;-61
2023/10/27 05:11:26;;;;;;;36.90;17.30;;;11.00;99.90;;;;;;5114028;28;20504;-61
2023/10/27 05:13:53;;;;;;;37.30;20.03;;;11.10;99.90;;;;;;5113984;28;20839;-61
2023/10/27 05:16:19;;;;;;;35.10;19.00;;;10.90;99.90;;;;;;5113862;28;20786;-61
2023/10/27 05:18:47;;;;;;;33.83;17.33;;;10.90;99.90;;;;;;5113803;28;20548;-61
2023/10/27 05:21:16;;;;;;;35.67;19.17;;;10.90;99.90;;;;;;5113638;28;20445;-61
2023/10/27 05:23:43;;;;;;;34.37;17.70;;;10.80;99.90;;;;;;5113738;28;20449;-61
2023/10/27 05:26:10;;;;;;;40.17;18.90;;;10.70;99.90;;;;;;5113814;28;20842;-61
2023/10/27 05:28:36;;;;;;;35.43;18.67;;;10.80;99.90;;;;;;5113693;28;20529;-61
2023/10/27 05:31:03;;;;;;;34.63;17.93;;;10.80;99.90;;;;;;5113593;28;20469;-61
2023/10/27 05:33:30;;;;;;;42.53;18.90;;;10.70;99.90;;;;;;5113507;28;20452;-61
2023/10/27 05:35:56;;;;;;;36.93;17.43;;;10.80;99.90;;;;;;5113342;28;20448;-61
2023/10/27 05:38:23;;;;;;;37.53;16.97;;;10.80;99.90;;;;;;5113667;28;20442;-61
2023/10/27 05:40:50;;;;;;;39.90;18.33;;;10.80;99.90;;;;;;5113544;28;20540;-61
2023/10/27 05:43:17;;;;;;;31.43;18.30;;;10.70;99.90;;;;;;5113468;28;20449;-62
2023/10/27 05:45:44;;;;;;;39.40;16.97;;;10.70;99.90;;;;;;5113217;28;20472;-61
2023/10/27 05:48:10;;;;;;;36.00;17.67;;;10.70;99.90;;;;;;5113210;28;20448;-62
2023/10/27 05:50:37;;;;;;;33.57;15.97;;;10.80;99.90;;;;;;5113216;28;20463;-61
2023/10/27 05:53:04;;;;;;;35.70;18.33;;;10.90;99.90;;;;;;5118936;28;20536;-61
2023/10/27 05:55:30;;;;;;;33.00;17.30;;;10.80;99.90;;;;;;5120203;28;20438;-61
2023/10/27 05:57:58;;;;;;;30.80;16.67;;;10.80;99.90;;;;;;5120126;28;20455;-61
2023/10/27 06:00:25;;;;;;;31.87;15.73;;;10.80;99.90;;;;;;5120021;28;21007;-62
2023/10/27 06:02:53;;;;;;;28.77;14.37;;;10.80;99.90;;;;;;5119892;28;20452;-61
2023/10/27 06:05:20;;;;;;;37.43;17.50;;;10.70;99.90;;;;;;5120068;28;20528;-61
2023/10/27 06:07:47;;;;;;;27.53;15.13;;;10.80;99.90;;;;;;5120174;28;20433;-61
2023/10/27 06:10:13;;;;;;;31.47;15.63;;;10.80;99.90;;;;;;5120058;28;20529;-61
2023/10/27 06:12:40;;;;;;;38.13;16.87;;;10.70;99.90;;;;;;5119898;28;20477;-61
2023/10/27 06:15:09;;;;;;;33.03;15.77;;;10.70;99.90;;;;;;5119943;28;20790;-61
2023/10/27 06:17:35;;;;;;;25.77;14.10;;;10.70;99.90;;;;;;5119765;28;20956;-61
2023/10/27 06:20:03;;;;;;;32.10;16.07;;;10.70;99.90;;;;;;5120085;28;20442;-62
2023/10/27 06:22:30;;;;;;;30.50;15.10;;;10.70;99.90;;;;;;5120017;28;20521;-61
2023/10/27 06:24:56;;;;;;;30.20;14.40;;;10.70;99.90;;;;;;5119930;28;20450;-61
2023/10/27 06:27:23;;;;;;;25.50;15.43;;;10.80;99.90;;;;;;5119776;28;20463;-61
2023/10/27 06:29:50;;;;;;;31.07;15.90;;;10.80;99.90;;;;;;5119682;28;20473;-61
2023/10/27 06:32:19;;;;;;;24.60;13.47;;;10.80;99.90;;;;;;5119605;28;20513;-61
2023/10/27 06:34:46;;;;;;;28.87;14.87;;;10.70;99.90;;;;;;5119893;28;20494;-62
2023/10/27 06:37:12;;;;;;;28.00;15.70;;;10.80;99.90;;;;;;5119858;27;20859;-61
2023/10/27 06:39:39;;;;;;;23.90;14.43;;;10.70;99.90;;;;;;5119862;28;20477;-61
2023/10/27 06:42:06;;;;;;;27.83;15.00;;;10.80;99.90;;;;;;5119750;28;20927;-61
2023/10/27 06:44:33;;;;;;;22.67;14.23;;;10.90;99.90;;;;;;5119425;28;20480;-62
2023/10/27 06:46:59;;;;;;;24.77;14.47;;;11.00;99.90;;;;;;5119930;28;20486;-61
2023/10/27 06:49:27;;;;;;;24.93;14.37;;;11.00;99.90;;;;;;5119661;28;20437;-61
2023/10/27 06:51:53;;;;;;;24.80;13.27;;;11.00;99.90;;;;;;5119620;28;20481;-61
2023/10/27 06:54:20;;;;;;;23.93;13.47;;;11.00;99.90;;;;;;5119536;28;20529;-62
2023/10/27 06:56:46;;;;;;;25.77;14.90;;;11.00;99.90;;;;;;5119532;28;20532;-62
2023/10/27 06:59:13;;;;;;;22.10;13.53;;;10.90;99.90;;;;;;5119286;28;20441;-61
2023/10/27 07:01:39;;;;;;;27.30;14.50;;;10.90;99.90;;;;;;5119204;28;20939;-62
2023/10/27 07:04:06;;;;;;;23.60;13.57;;;10.90;99.90;;;;;;5116729;28;20442;-62
2023/10/27 07:06:34;;;;;;;22.27;12.70;;;11.00;99.90;;;;;;5116177;28;20794;-63
2023/10/27 07:09:00;;;;;;;23.43;12.87;;;11.00;99.90;;;;;;5116196;28;20474;-62
2023/10/27 07:11:27;;;;;;;21.17;11.93;;;11.00;99.90;;;;;;5115940;28;20469;-64
2023/10/27 07:13:53;;;;;;;20.40;12.60;;;11.10;99.90;;;;;;5116991;27;20536;-64
2023/10/27 07:16:20;;;;;;;20.03;12.13;;;11.10;99.90;;;;;;5136704;27;20444;-61
2023/10/27 07:18:46;;;;;;;24.90;13.03;;;11.10;99.90;;;;;;5136665;27;20535;-59
2023/10/27 07:21:12;;;;;;;23.17;12.80;;;11.10;99.90;;;;;;5136481;27;20555;-64
2023/10/27 07:23:40;;;;;;;23.67;12.83;;;11.00;99.90;;;;;;5136461;27;20483;-61
2023/10/27 07:26:14;;;;;;;20.97;12.97;;;11.00;99.90;;;;;;5136248;27;20887;-61
2023/10/27 07:28:40;;;;;;;28.43;14.37;;;11.00;99.90;;;;;;5136597;27;20536;-59
2023/10/27 07:31:08;;;;;;;24.30;13.80;;;10.90;99.90;;;;;;5136294;27;20537;-62
2023/10/27 07:33:35;;;;;;;21.93;12.87;;;11.00;99.90;;;;;;5136328;27;20539;-61
2023/10/27 07:36:02;;;;;;;24.37;13.67;;;11.10;99.90;;;;;;5136168;27;20445;-59
2023/10/27 07:38:30;;;;;;;23.93;14.10;;;11.10;99.90;;;;;;5136015;27;20480;-59
2023/10/27 07:40:58;;;;;;;24.50;14.47;;;11.10;99.90;;;;;;5136133;27;20523;-59
2023/10/27 07:43:25;;;;;;;18.13;11.87;;;11.10;99.90;;;;;;5136149;27;20885;-58
2023/10/27 07:45:54;;;;;;;27.30;12.80;;;11.20;99.90;;;;;;5135704;27;20555;-59
2023/10/27 07:48:20;;;;;;;26.93;13.70;;;11.20;99.90;;;;;;5135901;27;20438;-59
2023/10/27 07:50:47;;;;;;;20.83;12.07;;;11.00;99.90;;;;;;5136118;27;20535;-61
2023/10/27 07:53:13;;;;;;;25.50;12.03;;;11.10;99.90;;;;;;5135659;27;20487;-60
2023/10/27 07:55:40;;;;;;;20.57;11.87;;;11.00;99.90;;;;;;5135726;27;20440;-61
2023/10/27 07:58:08;;;;;;;21.20;11.83;;;11.00;99.90;;;;;;5135925;27;20535;-62
2023/10/27 08:00:34;;;;;;;23.53;12.70;;;11.10;99.90;;;;;;5135522;27;20445;-62
2023/10/27 08:03:01;;;;;;;19.43;11.50;;;11.00;99.90;;;;;;5135758;27;20441;-58
2023/10/27 08:05:28;;;;;;;22.83;12.87;;;11.00;99.90;;;;;;5135550;27;20440;-63
2023/10/27 08:07:55;;;;;;;18.20;11.80;;;11.00;99.90;;;;;;5135400;27;20604;-58
2023/10/27 08:10:21;;;;;;;16.33;10.90;;;11.00;99.90;;;;;;5135681;27;20501;-62
2023/10/27 08:12:48;;;;;;;21.93;13.20;;;11.00;99.90;;;;;;5135596;27;20483;-60
2023/10/27 08:15:16;;;;;;;22.83;13.60;;;11.10;99.90;;;;;;5134355;27;20451;-60
2023/10/27 08:17:42;;;;;;;21.20;13.30;;;11.10;99.90;;;;;;5135414;27;20531;-55
2023/10/27 08:20:10;;;;;;;22.60;12.60;;;11.10;99.90;;;;;;5135324;27;20535;-63
2023/10/27 08:22:37;;;;;;;24.17;13.07;;;11.10;99.90;;;;;;5135191;27;20468;-63
2023/10/27 08:25:04;;;;;;;21.57;12.57;;;11.10;99.90;;;;;;5135372;27;20468;-67
2023/10/27 08:27:31;;;;;;;20.17;12.27;;;11.00;99.90;;;;;;5135067;27;20447;-66
2023/10/27 08:29:58;;;;;;;19.20;11.37;;;11.00;99.90;;;;;;5135242;27;20441;-66
2023/10/27 08:32:26;;;;;;;16.83;11.40;;;11.00;99.90;;;;;;5134900;27;20483;-66
2023/10/27 08:34:53;;;;;;;22.03;12.20;;;11.10;99.90;;;;;;5134964;27;20510;-65
2023/10/27 08:37:19;;;;;;;17.97;11.47;;;11.10;99.90;;;;;;5134740;27;20594;-66
2023/10/27 08:39:46;;;;;;;19.33;13.33;;;11.00;99.90;;;;;;5135008;27;20451;-62
2023/10/27 08:42:12;;;;;;;22.20;12.23;;;10.90;99.90;;;;;;5135016;27;20477;-67
2023/10/27 08:44:41;;;;;;;18.50;11.70;;;10.90;99.90;;;;;;5134686;27;20559;-66
2023/10/27 08:47:07;;;;;;;17.00;11.57;;;10.90;99.90;;;;;;5134730;27;20448;-61
2023/10/27 08:49:35;;;;;;;20.67;13.17;;;10.90;99.90;;;;;;5134757;27;20892;-58
2023/10/27 08:52:02;;;;;;;20.20;12.00;;;10.90;99.90;;;;;;5134833;27;20892;-60
2023/10/27 08:54:29;;;;;;;17.20;11.60;;;10.90;99.90;;;;;;5134775;27;20451;-62
2023/10/27 08:56:56;;;;;;;17.83;11.67;;;10.90;99.90;;;;;;5134680;27;20445;-60
2023/10/27 08:59:23;;;;;;;19.97;12.40;;;11.00;99.90;;;;;;5134267;27;20531;-61
2023/10/27 09:01:49;;;;;;;17.27;10.60;;;11.00;99.90;;;;;;5129717;27;20808;-61
2023/10/27 09:04:19;;;;;;;16.70;11.17;;;11.00;99.90;;;;;;5114323;28;20529;-60
2023/10/27 09:06:47;;;;;;;14.07;10.30;;;11.10;99.90;;;;;;5114031;28;20495;-61
2023/10/27 09:09:14;;;;;;;15.57;11.23;;;11.00;99.90;;;;;;5113797;28;20437;-61
2023/10/27 09:11:42;;;;;;;16.33;10.60;;;11.00;99.90;;;;;;5113679;28;20495;-55
2023/10/27 09:14:19;;;;;;;16.87;12.13;;;11.10;99.90;;;;;;5113581;28;20442;-60
2023/10/27 09:16:45;;;;;;;15.60;11.90;;;11.10;99.90;;;;;;5113545;28;20797;-60
2023/10/27 09:19:19;;;;;;;15.73;13.17;;;11.10;99.90;;;;;;5113988;28;20885;-60
2023/10/27 09:21:47;;;;;;;15.43;11.70;;;11.10;99.90;;;;;;5113724;28;20446;-60
2023/10/27 09:24:21;;;;;;;14.20;11.40;;;11.20;99.90;;;;;;5113395;28;20449;-60
2023/10/27 09:26:48;;;;;;;17.60;11.63;;;11.30;99.90;;;;;;5113170;28;20508;-56
2023/10/27 09:29:15;;;;;;;14.70;11.53;;;11.30;99.90;;;;;;5113357;28;20532;-60
2023/10/27 09:31:42;;;;;;;16.00;11.10;;;11.30;99.90;;;;;;5113654;28;20437;-61
2023/10/27 09:34:20;;;;;;;14.77;11.60;;;11.40;99.90;;;;;;5113287;28;20445;-61
2023/10/27 09:36:49;;;;;;;16.07;11.07;;;11.30;99.90;;;;;;5113296;28;20569;-61
2023/10/27 09:39:18;;;;;;;13.47;11.77;;;11.30;99.90;;;;;;5113156;28;20532;-60
2023/10/27 09:41:47;;;;;;;18.50;11.67;;;11.40;99.90;;;;;;5113334;28;20967;-62
2023/10/27 09:44:15;;;;;;;15.30;11.70;;;11.30;99.90;;;;;;5113307;28;20538;-61
2023/10/27 09:46:50;;;;;;;16.37;11.33;;;11.30;99.90;;;;;;5113231;28;20467;-60
2023/10/27 09:49:25;;;;;;;16.13;9.53;;;11.20;99.90;;;;;;5113576;28;20956;-61
2023/10/27 09:51:59;;;;;;;16.20;10.77;;;11.20;99.90;;;;;;5113636;28;20446;-62
2023/10/27 09:54:29;;;;;;;15.07;10.40;;;11.30;99.90;;;;;;5113197;28;20445;-59
2023/10/27 09:56:56;;;;;;;17.00;13.43;;;11.30;99.90;;;;;;5113168;28;20553;-62
2023/10/27 09:59:23;;;;;;;16.80;11.30;;;11.30;99.90;;;;;;5112314;28;20441;-60
2023/10/27 10:01:49;;;;;;;14.87;11.80;;;11.30;99.90;;;;;;5096608;28;20972;-63
2023/10/27 10:04:54;;;;;;;16.13;11.57;;;11.40;99.90;;;;;;5092824;28;20445;-65
2023/10/27 10:07:30;;;;;;;15.37;11.17;;;11.40;99.90;;;;;;5092520;28;20533;-60
2023/10/27 10:09:56;;;;;;;11.93;10.33;;;11.40;99.90;;;;;;5092740;28;20538;-60
2023/10/27 10:12:23;;;;;;;10.83;9.73;;;11.40;99.90;;;;;;5092324;28;20469;-59
2023/10/27 10:14:50;;;;;;;11.70;9.27;;;11.50;99.90;;;;;;5092581;28;20533;-60
2023/10/27 10:17:36;;;;;;;13.00;10.10;;;11.50;99.90;;;;;;5092560;28;20450;-60
2023/10/27 10:20:03;;;;;;;9.50;8.50;;;11.50;99.90;;;;;;5092635;28;20536;-61
2023/10/27 10:22:53;;;;;;;12.27;10.07;;;11.50;99.90;;;;;;5092566;28;20442;-59
2023/10/27 10:25:27;;;;;;;9.63;8.50;;;11.40;99.90;;;;;;5092377;28;20445;-59
2023/10/27 10:28:22;;;;;;;8.70;7.80;;;11.40;99.90;;;;;;5092410;28;20443;-59
2023/10/27 10:31:10;;;;;;;10.60;7.93;;;11.40;99.90;;;;;;5092588;28;20821;-59
2023/10/27 10:33:37;;;;;;;11.23;8.40;;;11.60;99.90;;;;;;5091827;28;20506;-59
2023/10/27 10:36:26;;;;;;;9.47;8.20;;;11.70;99.90;;;;;;5092539;28;20464;-59
2023/10/27 10:39:03;;;;;;;10.00;8.73;;;11.70;99.90;;;;;;5093737;28;20473;-59
2023/10/27 10:42:03;;;;;;;9.23;7.60;;;11.60;99.90;;;;;;5096657;28;20446;-59
2023/10/27 10:44:31;;;;;;;9.53;8.53;;;11.70;99.90;;;;;;5096533;28;20480;-60
2023/10/27 10:47:00;;;;;;;9.17;8.17;;;11.60;99.90;;;;;;5096369;28;20438;-60
2023/10/27 10:49:28;;;;;;;8.90;8.00;;;11.70;99.90;;;;;;5096161;28;20442;-59
2023/10/27 10:51:55;;;;;;;9.27;8.23;;;11.60;99.90;;;;;;5096098;28;20507;-59
2023/10/27 10:54:26;;;;;;;8.50;7.60;;;11.70;99.90;;;;;;5096057;28;20563;-60
2023/10/27 10:57:00;;;;;;;9.30;7.63;;;11.60;99.90;;;;;;5096201;28;20438;-60
2023/10/27 10:59:26;;;;;;;9.80;8.33;;;11.60;99.90;;;;;;5096164;28;20529;-60
2023/10/27 11:01:56;;;;;;;7.47;6.67;;;11.60;99.90;;;;;;5096119;28;20529;-61
2023/10/27 11:04:29;;;;;;;8.63;7.33;;;11.60;99.90;;;;;;5095961;28;20468;-60
2023/10/27 11:06:59;;;;;;;9.10;7.97;;;11.60;99.90;;;;;;5095772;28;20530;-60
2023/10/27 11:09:27;;;;;;;10.33;8.27;;;11.60;99.90;;;;;;5096124;28;20438;-60
2023/10/27 11:11:54;;;;;;;10.03;8.00;;;11.60;99.90;;;;;;5095734;28;20470;-60
2023/10/27 11:14:21;;;;;;;9.23;8.30;;;11.60;99.90;;;;;;5095586;28;20485;-60
2023/10/27 11:16:55;;;;;;;9.90;8.97;;;11.70;99.90;;;;;;5095784;28;20468;-60
2023/10/27 11:19:22;;;;;;;10.20;8.27;;;11.70;99.90;;;;;;5095656;28;20450;-60
2023/10/27 11:21:52;;;;;;;9.20;7.43;;;11.80;99.90;;;;;;5095518;28;20465;-60
2023/10/27 11:24:18;;;;;;;10.20;8.03;;;11.90;99.90;;;;;;5095685;28;20755;-60
2023/10/27 11:26:46;;;;;;;10.30;8.90;;;11.80;99.90;;;;;;5095646;28;20449;-60
2023/10/27 11:29:13;;;;;;;9.23;8.20;;;11.80;99.90;;;;;;5095782;28;20443;-60
2023/10/27 11:31:41;;;;;;;9.17;8.03;;;11.80;99.90;;;;;;5095422;28;20442;-60
2023/10/27 11:34:09;;;;;;;12.50;8.13;;;11.80;99.90;;;;;;5095145;28;21034;-60
2023/10/27 11:36:38;;;;;;;8.20;7.43;;;11.80;99.90;;;;;;5095510;28;20435;-60
2023/10/27 11:39:15;;;;;;;9.27;8.27;;;11.80;99.90;;;;;;5095313;28;20451;-60
2023/10/27 11:41:42;;;;;;;9.17;7.60;;;11.90;99.90;;;;;;5095297;28;20439;-60
2023/10/27 11:44:10;;;;;;;12.50;8.30;;;11.90;99.90;;;;;;5095109;28;20898;-61
2023/10/27 11:46:37;;;;;;;9.83;7.93;;;11.90;99.90;;;;;;5095096;28;20457;-61
2023/10/27 11:49:03;;;;;;;8.60;7.80;;;11.80;99.90;;;;;;5095091;28;20852;-60
2023/10/27 11:51:30;;;;;;;13.90;7.83;;;11.80;99.90;;;;;;5094956;28;20859;-60
2023/10/27 11:53:58;;;;;;;8.10;7.23;;;11.70;99.90;;;;;;5094933;28;20561;-60
2023/10/27 11:56:25;;;;;;;8.90;8.00;;;11.80;99.90;;;;;;5095046;28;20447;-60
2023/10/27 11:58:51;;;;;;;9.13;6.40;;;11.80;99.90;;;;;;5094859;28;20443;-60
2023/10/27 12:01:19;;;;;;;8.03;7.23;;;11.90;99.90;;;;;;5094744;28;20449;-60
2023/10/27 12:03:46;;;;;;;8.17;7.37;;;11.90;99.90;;;;;;5094902;28;20485;-60
2023/10/27 12:06:13;;;;;;;12.27;7.70;;;12.00;99.90;;;;;;5103854;28;20457;-60
2023/10/27 12:08:39;;;;;;;10.57;7.87;;;11.90;99.90;;;;;;5112247;28;20503;-60
2023/10/27 12:11:05;;;;;;;9.83;8.67;;;11.90;99.90;;;;;;5113769;28;20446;-60
2023/10/27 12:13:32;;;;;;;7.97;6.80;;;11.90;99.90;;;;;;5114545;28;20477;-60
2023/10/27 12:15:58;;;;;;;10.10;6.97;;;11.90;99.90;;;;;;5113589;28;20529;-60
2023/10/27 12:18:26;;;;;;;8.40;6.90;;;11.90;99.90;;;;;;5114565;28;20532;-60
2023/10/27 12:20:53;;;;;;;7.93;7.10;;;11.90;99.90;;;;;;5115148;28;20446;-60
2023/10/27 12:23:20;;;;;;;6.77;6.17;;;11.90;99.90;;;;;;5114788;28;20446;-60
2023/10/27 12:25:47;;;;;;;6.87;6.37;;;11.80;99.90;;;;;;5114844;28;20442;-60
2023/10/27 12:28:13;;;;;;;7.03;6.40;;;11.80;99.90;;;;;;5114577;28;20850;-60
2023/10/27 12:30:40;;;;;;;8.67;6.03;;;11.80;99.90;;;;;;5114715;28;20533;-60
2023/10/27 12:33:09;;;;;;;7.70;6.30;;;11.80;99.90;;;;;;5114524;28;20988;-60